createdAt,value
2023-03-30T00:01:29.411Z,13.97
2023-03-30T00:03:31.584Z,14.02
2023-03-30T00:05:35.925Z,14.10
2023-03-30T00:07:40.757Z,14.10
2023-03-30T00:09:43.818Z,14.09
2023-03-30T00:11:48.128Z,14.10
2023-03-30T00:13:51.067Z,14.02
2023-03-30T00:15:53.267Z,14.03
2023-03-30T00:17:59.398Z,14.02
2023-03-30T00:20:02.795Z,14.01
2023-03-30T00:22:07.014Z,14.08
2023-03-30T00:24:11.495Z,13.99
2023-03-30T00:26:16.458Z,13.98
2023-03-30T00:28:18.411Z,14.24
2023-03-30T00:30:20.498Z,14.09
2023-03-30T00:32:22.752Z,14.07
2023-03-30T00:34:24.736Z,14.01
2023-03-30T00:36:26.894Z,14.00
2023-03-30T00:38:29.922Z,13.93
2023-03-30T00:40:34.267Z,14.02
2023-03-30T00:42:37.749Z,13.92
2023-03-30T00:44:58.907Z,13.98
2023-03-30T00:47:01.062Z,13.84
2023-03-30T00:49:10.473Z,13.99
2023-03-30T00:51:14.216Z,13.91
2023-03-30T00:53:28.909Z,13.94
2023-03-30T00:55:33.938Z,13.99
2023-03-30T00:57:39.400Z,14.04
2023-03-30T00:59:41.942Z,13.81
2023-03-30T01:01:50.478Z,13.95
2023-03-30T01:03:52.967Z,13.96
2023-03-30T01:05:57.296Z,13.83
2023-03-30T01:07:59.986Z,13.89
2023-03-30T01:10:02.577Z,13.76
2023-03-30T01:12:05.602Z,13.83
2023-03-30T01:14:11.415Z,13.87
2023-03-30T01:16:32.934Z,13.95
2023-03-30T01:18:36.148Z,14.07
2023-03-30T01:20:38.863Z,13.92
2023-03-30T01:22:59.275Z,13.72
2023-03-30T01:25:15.391Z,13.76
2023-03-30T01:27:27.464Z,13.84
2023-03-30T01:29:44.500Z,13.78
2023-03-30T01:32:05.901Z,13.82
2023-03-30T01:34:18.242Z,13.75
2023-03-30T01:36:26.883Z,13.68
2023-03-30T01:38:48.916Z,13.58
2023-03-30T01:41:00.125Z,13.53
2023-03-30T01:43:15.959Z,13.67
2023-03-30T01:45:34.545Z,13.45
2023-03-30T01:47:51.908Z,13.36
2023-03-30T01:50:04.574Z,13.25
2023-03-30T01:52:20.285Z,13.14
2023-03-30T01:54:27.494Z,13.20
2023-03-30T01:56:39.648Z,13.10
2023-03-30T01:58:51.067Z,13.14
2023-03-30T02:00:55.005Z,12.97
2023-03-30T02:03:07.000Z,12.87
2023-03-30T02:05:11.647Z,12.91
2023-03-30T02:07:18.656Z,13.00
2023-03-30T02:09:24.045Z,13.02
2023-03-30T02:11:28.319Z,13.00
2023-03-30T02:13:33.192Z,13.11
2023-03-30T02:15:39.205Z,12.94
2023-03-30T02:17:42.552Z,12.84
2023-03-30T02:19:47.084Z,12.80
2023-03-30T02:21:50.831Z,12.77
2023-03-30T02:23:56.046Z,12.95
2023-03-30T02:25:58.515Z,12.83
2023-03-30T02:28:00.948Z,12.96
2023-03-30T02:30:03.797Z,12.83
2023-03-30T02:32:06.619Z,13.07
2023-03-30T02:34:19.649Z,13.14
2023-03-30T02:36:39.490Z,13.15
2023-03-30T02:38:44.848Z,13.17
2023-03-30T02:40:57.931Z,13.25
2023-03-30T02:43:17.869Z,13.30
2023-03-30T02:45:27.395Z,13.29
2023-03-30T02:47:38.967Z,13.15
2023-03-30T02:49:57.727Z,13.21
2023-03-30T02:52:13.554Z,13.20
2023-03-30T02:54:28.625Z,13.18
2023-03-30T02:56:37.875Z,13.26
2023-03-30T02:58:47.957Z,13.01
2023-03-30T03:00:55.809Z,13.13
2023-03-30T03:03:05.336Z,12.90
2023-03-30T03:05:11.106Z,13.08
2023-03-30T03:07:14.444Z,13.28
2023-03-30T03:09:16.908Z,13.24
2023-03-30T03:11:18.891Z,13.20
2023-03-30T03:13:22.274Z,13.29
2023-03-30T03:15:24.231Z,13.27
2023-03-30T03:17:34.853Z,13.19
2023-03-30T03:19:37.241Z,13.14
2023-03-30T03:21:39.271Z,13.18
2023-03-30T03:23:41.571Z,13.29
2023-03-30T03:25:43.652Z,13.26
2023-03-30T03:27:46.303Z,13.31
2023-03-30T03:29:48.289Z,13.21
2023-03-30T03:31:50.395Z,13.18
2023-03-30T03:33:52.445Z,13.14
2023-03-30T03:35:55.319Z,13.22
2023-03-30T03:37:57.926Z,13.22
2023-03-30T03:39:59.959Z,13.12
2023-03-30T03:42:01.925Z,13.12
2023-03-30T03:44:03.893Z,13.04
2023-03-30T03:46:06.027Z,13.11
2023-03-30T03:48:08.661Z,13.15
2023-03-30T03:50:11.718Z,13.23
2023-03-30T03:52:13.727Z,13.06
2023-03-30T03:54:16.825Z,13.13
2023-03-30T03:56:18.845Z,13.13
2023-03-30T03:58:24.405Z,12.84
2023-03-30T04:00:27.005Z,13.05
2023-03-30T04:02:29.996Z,12.94
2023-03-30T04:04:32.325Z,13.00
2023-03-30T04:06:34.292Z,13.15
2023-03-30T04:08:36.737Z,13.13
2023-03-30T04:10:40.306Z,13.07
2023-03-30T04:12:42.345Z,13.08
2023-03-30T04:14:44.300Z,12.87
2023-03-30T04:16:46.643Z,12.86
2023-03-30T04:18:48.914Z,12.93
2023-03-30T04:20:50.808Z,13.01
2023-03-30T04:22:53.657Z,12.90
2023-03-30T04:24:55.647Z,12.91
2023-03-30T04:26:57.869Z,12.88
2023-03-30T04:29:00.390Z,12.82
2023-03-30T04:31:05.210Z,12.94
2023-03-30T04:33:09.476Z,12.89
2023-03-30T04:35:12.013Z,12.86
2023-03-30T04:37:18.339Z,12.91
2023-03-30T04:39:20.964Z,12.78
2023-03-30T04:41:26.279Z,12.73
2023-03-30T04:43:28.141Z,12.63
2023-03-30T04:45:31.250Z,12.68
2023-03-30T04:47:34.209Z,12.78
2023-03-30T04:49:36.022Z,12.83
2023-03-30T04:51:39.785Z,12.81
2023-03-30T04:53:41.652Z,12.80
2023-03-30T04:55:51.968Z,12.86
2023-03-30T04:57:53.840Z,12.84
2023-03-30T04:59:55.687Z,12.84
2023-03-30T05:01:57.463Z,12.80
2023-03-30T05:03:59.295Z,12.67
2023-03-30T05:06:01.292Z,12.70
2023-03-30T05:08:03.806Z,12.68
2023-03-30T05:10:06.061Z,12.57
2023-03-30T05:12:07.993Z,12.64
2023-03-30T05:14:09.828Z,12.64
2023-03-30T05:16:11.862Z,12.55
2023-03-30T05:18:14.023Z,12.66
2023-03-30T05:20:16.139Z,12.54
2023-03-30T05:22:17.947Z,12.44
2023-03-30T05:24:19.808Z,12.62
2023-03-30T05:26:21.837Z,12.61
2023-03-30T05:28:23.884Z,12.65
2023-03-30T05:30:25.673Z,12.62
2023-03-30T05:32:27.928Z,12.65
2023-03-30T05:34:29.783Z,12.70
2023-03-30T05:36:32.115Z,12.62
2023-03-30T05:38:33.951Z,12.51
2023-03-30T05:40:35.879Z,12.57
2023-03-30T05:42:38.290Z,12.37
2023-03-30T05:44:40.127Z,12.55
2023-03-30T05:46:42.025Z,12.55
2023-03-30T05:48:43.880Z,12.75
2023-03-30T05:50:48.506Z,12.80
2023-03-30T05:52:50.498Z,12.79
2023-03-30T05:54:52.435Z,12.80
2023-03-30T05:56:54.313Z,12.75
2023-03-30T05:58:56.223Z,12.79
2023-03-30T06:00:58.777Z,12.70
2023-03-30T06:03:00.702Z,12.58
2023-03-30T06:05:03.963Z,12.51
2023-03-30T06:07:06.685Z,12.60
2023-03-30T06:09:08.558Z,12.60
2023-03-30T06:11:11.511Z,12.62
2023-03-30T06:13:13.349Z,12.58
2023-03-30T06:15:15.421Z,12.62
2023-03-30T06:17:17.326Z,12.67
2023-03-30T06:19:19.289Z,12.62
2023-03-30T06:21:21.121Z,12.59
2023-03-30T06:23:23.160Z,12.53
2023-03-30T06:25:25.215Z,12.64
2023-03-30T06:27:27.249Z,12.76
2023-03-30T06:29:29.270Z,12.74
2023-03-30T06:31:31.296Z,12.71
2023-03-30T06:33:33.175Z,12.78
2023-03-30T06:35:35.253Z,12.77
2023-03-30T06:37:37.139Z,12.70
2023-03-30T06:39:39.091Z,12.80
2023-03-30T06:41:41.241Z,12.79
2023-03-30T06:43:43.342Z,12.95
2023-03-30T06:45:55.715Z,12.88
2023-03-30T06:47:57.757Z,12.73
2023-03-30T06:49:59.756Z,12.84
2023-03-30T06:52:04.892Z,12.82
2023-03-30T06:54:07.842Z,12.57
2023-03-30T06:56:10.159Z,12.84
2023-03-30T06:58:12.150Z,12.95
2023-03-30T07:00:15.482Z,12.91
2023-03-30T07:02:21.232Z,13.00
2023-03-30T07:04:23.578Z,12.99
2023-03-30T07:06:25.480Z,13.15
2023-03-30T07:08:27.406Z,13.08
2023-03-30T07:10:29.345Z,13.18
2023-03-30T07:12:31.362Z,13.19
2023-03-30T07:14:33.286Z,13.21
2023-03-30T07:16:35.426Z,13.06
2023-03-30T07:18:37.331Z,12.93
2023-03-30T07:20:39.343Z,13.09
2023-03-30T07:22:42.667Z,13.07
2023-03-30T07:24:46.003Z,13.13
2023-03-30T07:26:47.951Z,13.18
2023-03-30T07:28:49.863Z,13.21
2023-03-30T07:30:53.175Z,13.08
2023-03-30T07:32:57.725Z,13.32
2023-03-30T07:35:00.742Z,13.33
2023-03-30T07:37:02.724Z,13.33
2023-03-30T07:39:04.987Z,13.33
2023-03-30T07:41:12.597Z,13.27
2023-03-30T07:43:14.660Z,13.19
2023-03-30T07:45:17.268Z,13.25
2023-03-30T07:47:19.378Z,13.20
2023-03-30T07:49:21.703Z,13.24
2023-03-30T07:51:24.307Z,13.34
2023-03-30T07:53:27.260Z,13.40
2023-03-30T07:55:29.199Z,13.40
2023-03-30T07:57:32.345Z,13.50
2023-03-30T07:59:34.595Z,13.44
2023-03-30T08:01:38.314Z,13.33
2023-03-30T08:03:45.275Z,13.49
2023-03-30T08:05:56.921Z,13.49
2023-03-30T08:07:58.939Z,13.26
2023-03-30T08:10:01.240Z,13.42
2023-03-30T08:12:03.630Z,13.44
2023-03-30T08:14:06.712Z,13.56
2023-03-30T08:16:09.340Z,13.58
2023-03-30T08:18:13.175Z,13.38
2023-03-30T08:20:15.302Z,13.37
2023-03-30T08:22:17.325Z,13.33
2023-03-30T08:24:19.560Z,13.51
2023-03-30T08:26:21.749Z,13.51
2023-03-30T08:28:24.021Z,13.71
2023-03-30T08:30:26.615Z,13.70
2023-03-30T08:32:28.609Z,13.83
2023-03-30T08:34:30.587Z,13.81
2023-03-30T08:36:32.589Z,13.84
2023-03-30T08:38:34.542Z,13.93
2023-03-30T08:40:42.130Z,14.05
2023-03-30T08:43:03.819Z,13.91
2023-03-30T08:45:09.805Z,13.82
2023-03-30T08:47:16.794Z,13.95
2023-03-30T08:49:23.159Z,13.84
2023-03-30T08:51:29.385Z,13.94
2023-03-30T08:53:34.007Z,13.89
2023-03-30T08:55:48.499Z,13.96
2023-03-30T08:58:03.271Z,13.90
2023-03-30T09:00:12.578Z,13.90
2023-03-30T09:02:18.185Z,13.85
2023-03-30T09:04:23.701Z,14.08
2023-03-30T09:06:34.160Z,14.15
2023-03-30T09:08:40.861Z,14.14
2023-03-30T09:10:48.260Z,13.99
2023-03-30T09:12:55.805Z,14.09
2023-03-30T09:15:03.559Z,14.15
2023-03-30T09:17:14.450Z,14.15
2023-03-30T09:19:25.121Z,14.11
2023-03-30T09:21:31.122Z,14.24
2023-03-30T09:23:38.220Z,14.35
2023-03-30T09:26:00.786Z,14.36
2023-03-30T09:28:20.884Z,14.58
2023-03-30T09:30:31.672Z,14.56
2023-03-30T09:32:41.061Z,14.56
2023-03-30T09:34:47.057Z,14.50
2023-03-30T09:37:00.170Z,14.55
2023-03-30T09:39:02.318Z,14.37
2023-03-30T09:41:23.430Z,14.42
2023-03-30T09:43:42.205Z,14.47
2023-03-30T09:45:45.602Z,14.41
2023-03-30T09:47:47.706Z,14.29
2023-03-30T09:49:56.314Z,14.43
2023-03-30T09:52:05.379Z,14.21
2023-03-30T09:54:07.289Z,14.29
2023-03-30T09:56:17.349Z,14.20
2023-03-30T09:58:26.540Z,14.10
2023-03-30T10:00:33.383Z,14.03
2023-03-30T10:02:35.537Z,14.16
2023-03-30T10:05:02.551Z,14.34
2023-03-30T10:07:23.027Z,14.41
2023-03-30T10:09:25.251Z,14.37
2023-03-30T10:11:36.838Z,14.59
2023-03-30T10:13:43.286Z,14.94
2023-03-30T10:15:50.057Z,15.02
2023-03-30T10:17:56.480Z,15.20
2023-03-30T10:20:14.922Z,15.17
2023-03-30T10:22:19.161Z,14.93
2023-03-30T10:24:28.373Z,14.86
2023-03-30T10:26:34.846Z,14.97
2023-03-30T10:28:37.579Z,15.10
2023-03-30T10:30:39.946Z,15.02
2023-03-30T10:32:46.175Z,15.21
2023-03-30T10:34:52.981Z,15.31
2023-03-30T10:36:55.168Z,15.41
2023-03-30T10:39:09.323Z,15.57
2023-03-30T10:41:17.122Z,15.70
2023-03-30T10:43:25.510Z,15.64
2023-03-30T10:45:41.052Z,15.78
2023-03-30T10:48:03.195Z,15.95
2023-03-30T10:50:15.050Z,15.74
2023-03-30T10:52:48.515Z,15.76
2023-03-30T10:55:11.254Z,15.99
2023-03-30T10:57:18.895Z,15.77
2023-03-30T10:59:32.385Z,15.85
2023-03-30T11:01:53.855Z,16.04
2023-03-30T11:04:20.377Z,16.26
2023-03-30T11:06:30.949Z,16.38
2023-03-30T11:08:37.463Z,16.28
2023-03-30T11:10:44.251Z,16.31
2023-03-30T11:12:54.625Z,16.13
2023-03-30T11:15:08.626Z,16.09
2023-03-30T11:17:20.432Z,16.29
2023-03-30T11:19:26.430Z,16.03
2023-03-30T11:21:44.596Z,16.13
2023-03-30T11:23:56.525Z,16.20
2023-03-30T11:26:01.404Z,16.24
2023-03-30T11:28:15.758Z,16.31
2023-03-30T11:30:26.921Z,16.32
2023-03-30T11:32:33.836Z,15.92
2023-03-30T11:34:50.505Z,16.31
2023-03-30T11:37:09.099Z,16.05
2023-03-30T11:39:31.059Z,15.99
2023-03-30T11:41:42.950Z,16.26
2023-03-30T11:43:45.036Z,16.37
2023-03-30T11:45:55.507Z,16.42
2023-03-30T11:48:14.593Z,16.32
2023-03-30T11:50:30.034Z,16.52
2023-03-30T11:52:48.400Z,16.56
2023-03-30T11:55:08.568Z,16.48
2023-03-30T11:57:30.685Z,16.84
2023-03-30T11:59:39.812Z,16.61
2023-03-30T12:01:59.687Z,16.86
2023-03-30T12:04:10.938Z,16.73
2023-03-30T12:06:26.114Z,16.52
2023-03-30T12:08:47.463Z,16.69
2023-03-30T12:11:01.526Z,16.85
2023-03-30T12:13:03.616Z,16.83
2023-03-30T12:15:23.466Z,16.65
2023-03-30T12:17:37.063Z,16.53
2023-03-30T12:19:56.012Z,16.32
2023-03-30T12:22:05.884Z,16.11
2023-03-30T12:24:19.025Z,16.51
2023-03-30T12:26:31.094Z,16.61
2023-03-30T12:30:53.957Z,16.44
2023-03-30T12:32:59.782Z,16.38
2023-03-30T12:35:01.795Z,16.32
2023-03-30T12:37:13.423Z,16.55
2023-03-30T12:39:26.121Z,16.64
2023-03-30T12:41:38.537Z,16.74
2023-03-30T12:43:48.142Z,16.84
2023-03-30T12:46:02.948Z,16.77
2023-03-30T12:48:27.943Z,17.12
2023-03-30T12:50:49.718Z,16.68
2023-03-30T12:52:59.861Z,16.78
2023-03-30T12:55:03.657Z,16.79
2023-03-30T12:57:14.389Z,16.70
2023-03-30T12:59:26.411Z,16.71
2023-03-30T13:01:51.873Z,16.58
2023-03-30T13:03:59.455Z,16.49
2023-03-30T13:06:03.860Z,16.64
2023-03-30T13:08:19.308Z,16.81
2023-03-30T13:10:32.715Z,16.69
2023-03-30T13:12:44.049Z,17.01
2023-03-30T13:14:46.778Z,16.93
2023-03-30T13:17:11.304Z,16.81
2023-03-30T13:19:30.647Z,17.07
2023-03-30T13:21:48.029Z,17.01
2023-03-30T13:24:02.098Z,17.12
2023-03-30T13:26:34.741Z,17.11
2023-03-30T13:28:56.844Z,16.86
2023-03-30T13:31:15.647Z,17.15
2023-03-30T13:33:22.506Z,17.00
2023-03-30T13:35:38.576Z,17.05
2023-03-30T13:37:49.126Z,17.03
2023-03-30T13:40:08.973Z,16.96
2023-03-30T13:42:18.461Z,16.87
2023-03-30T13:44:38.389Z,16.79
2023-03-30T13:46:49.041Z,16.42
2023-03-30T13:49:10.841Z,16.42
2023-03-30T13:51:16.982Z,16.55
2023-03-30T13:53:19.723Z,16.67
2023-03-30T13:55:27.953Z,16.71
2023-03-30T13:57:36.811Z,16.85
2023-03-30T13:59:45.736Z,16.79
2023-03-30T14:01:53.759Z,16.86
2023-03-30T14:03:57.725Z,16.91
2023-03-30T14:06:04.251Z,16.93
2023-03-30T14:08:10.412Z,16.98
2023-03-30T14:10:16.085Z,16.98
2023-03-30T14:12:18.333Z,17.10
2023-03-30T14:14:34.813Z,16.91
2023-03-30T14:16:40.842Z,16.91
2023-03-30T14:18:43.233Z,16.96
2023-03-30T14:20:59.614Z,16.95
2023-03-30T14:23:04.363Z,16.90
2023-03-30T14:25:22.226Z,16.67
2023-03-30T14:27:24.460Z,16.77
2023-03-30T14:29:31.672Z,16.96
2023-03-30T14:31:47.292Z,16.94
2023-03-30T14:33:57.946Z,16.88
2023-03-30T14:36:02.224Z,16.74
2023-03-30T14:40:16.967Z,16.79
2023-03-30T14:42:21.707Z,16.79
2023-03-30T14:44:26.926Z,16.78
2023-03-30T14:46:42.800Z,16.92
2023-03-30T14:48:49.303Z,17.02
2023-03-30T14:50:52.927Z,16.94
2023-03-30T14:52:55.897Z,16.96
2023-03-30T14:55:07.476Z,17.15
2023-03-30T14:57:17.695Z,17.05
2023-03-30T14:59:21.050Z,17.19
2023-03-30T15:01:31.452Z,16.98
2023-03-30T15:03:37.717Z,17.00
2023-03-30T15:05:42.994Z,16.93
2023-03-30T15:07:56.462Z,16.98
2023-03-30T15:10:00.680Z,16.83
2023-03-30T15:12:04.197Z,16.86
2023-03-30T15:14:14.340Z,16.91
2023-03-30T15:16:22.162Z,16.81
2023-03-30T15:18:27.941Z,16.74
2023-03-30T15:20:31.930Z,16.92
2023-03-30T15:22:44.564Z,17.01
2023-03-30T15:24:47.059Z,16.67
2023-03-30T15:26:50.561Z,16.68
2023-03-30T15:28:57.052Z,16.91
2023-03-30T15:30:59.552Z,16.87
2023-03-30T15:33:02.823Z,16.99
2023-03-30T15:35:08.680Z,17.11
2023-03-30T15:37:23.019Z,16.96
2023-03-30T15:39:34.337Z,16.92
2023-03-30T15:41:48.110Z,16.74
2023-03-30T15:43:54.653Z,16.67
2023-03-30T15:46:02.682Z,16.55
2023-03-30T15:48:06.192Z,16.72
2023-03-30T15:50:14.670Z,16.70
2023-03-30T15:52:22.939Z,16.78
2023-03-30T15:54:36.377Z,16.78
2023-03-30T15:56:41.577Z,16.53
2023-03-30T15:58:44.043Z,16.44
2023-03-30T16:00:46.788Z,16.28
2023-03-30T16:02:57.931Z,16.38
2023-03-30T16:05:01.840Z,16.26
2023-03-30T16:07:15.440Z,16.31
2023-03-30T16:09:17.920Z,16.42
2023-03-30T16:11:21.546Z,16.34
2023-03-30T16:13:23.961Z,16.45
2023-03-30T16:15:30.111Z,16.43
2023-03-30T16:17:34.288Z,16.37
2023-03-30T16:19:38.501Z,16.25
2023-03-30T16:21:42.534Z,16.19
2023-03-30T16:23:46.131Z,16.21
2023-03-30T16:25:48.493Z,16.22
2023-03-30T16:27:50.439Z,16.19
2023-03-30T16:29:52.738Z,16.22
2023-03-30T16:31:55.621Z,15.97
2023-03-30T16:33:57.866Z,16.09
2023-03-30T16:35:59.971Z,16.22
2023-03-30T16:38:02.052Z,16.19
2023-03-30T16:40:13.169Z,16.07
2023-03-30T16:42:18.320Z,16.02
2023-03-30T16:44:22.550Z,15.97
2023-03-30T16:46:24.739Z,16.14
2023-03-30T16:48:29.105Z,16.05
2023-03-30T16:50:44.247Z,15.88
2023-03-30T16:52:46.343Z,15.89
2023-03-30T16:54:48.488Z,16.06
2023-03-30T16:56:50.624Z,15.83
2023-03-30T16:58:52.853Z,15.74
2023-03-30T17:01:03.435Z,15.66
2023-03-30T17:03:05.919Z,15.72
2023-03-30T17:05:08.428Z,15.83
2023-03-30T17:07:10.805Z,15.87
2023-03-30T17:09:16.967Z,15.64
2023-03-30T17:11:19.039Z,15.62
2023-03-30T17:13:21.386Z,15.59
2023-03-30T17:15:24.950Z,15.65
2023-03-30T17:17:27.586Z,15.68
2023-03-30T17:19:31.110Z,15.59
2023-03-30T17:21:33.205Z,15.57
2023-03-30T17:23:35.693Z,15.41
2023-03-30T17:25:40.099Z,15.40
2023-03-30T17:27:42.468Z,15.37
2023-03-30T17:29:44.484Z,15.15
2023-03-30T17:31:46.520Z,15.24
2023-03-30T17:33:49.488Z,14.91
2023-03-30T17:35:55.145Z,14.95
2023-03-30T17:37:57.235Z,14.99
2023-03-30T17:40:00.009Z,15.05
2023-03-30T17:42:02.182Z,14.92
2023-03-30T17:44:06.778Z,15.08
2023-03-30T17:46:13.537Z,15.14
2023-03-30T17:48:18.537Z,14.93
2023-03-30T17:50:24.099Z,15.12
2023-03-30T17:52:30.457Z,15.21
2023-03-30T17:54:33.398Z,15.15
2023-03-30T17:56:35.455Z,15.10
2023-03-30T17:58:37.474Z,15.08
2023-03-30T18:00:39.564Z,15.03
2023-03-30T18:02:41.542Z,14.85
2023-03-30T18:04:43.501Z,14.89
2023-03-30T18:06:45.702Z,14.70
2023-03-30T18:08:48.890Z,14.67
2023-03-30T18:10:52.943Z,14.72
2023-03-30T18:12:55.448Z,14.56
2023-03-30T18:14:57.603Z,14.86
2023-03-30T18:17:06.357Z,14.71
2023-03-30T18:19:11.900Z,14.64
2023-03-30T18:21:13.921Z,14.54
2023-03-30T18:23:15.983Z,14.55
2023-03-30T18:25:31.546Z,14.55
2023-03-30T18:27:35.135Z,14.80
2023-03-30T18:29:37.989Z,14.59
2023-03-30T18:31:39.918Z,14.63
2023-03-30T18:33:42.008Z,14.50
2023-03-30T18:35:45.943Z,14.63
2023-03-30T18:37:49.228Z,14.71
2023-03-30T18:39:51.157Z,14.59
2023-03-30T18:41:53.140Z,14.54
2023-03-30T18:43:55.078Z,14.42
2023-03-30T18:46:02.697Z,14.21
2023-03-30T18:48:07.342Z,14.38
2023-03-30T18:50:14.442Z,14.45
2023-03-30T18:52:17.397Z,14.43
2023-03-30T18:54:19.967Z,14.34
2023-03-30T18:56:22.048Z,14.48
2023-03-30T18:58:26.721Z,14.30
2023-03-30T19:00:31.700Z,14.32
2023-03-30T19:02:34.710Z,14.36
2023-03-30T19:04:38.058Z,14.34
2023-03-30T19:06:40.288Z,14.38
2023-03-30T19:08:43.725Z,14.29
2023-03-30T19:10:47.389Z,14.41
2023-03-30T19:12:53.846Z,14.35
2023-03-30T19:14:56.706Z,14.44
2023-03-30T19:16:59.942Z,14.52
2023-03-30T19:19:02.262Z,14.61
2023-03-30T19:21:05.215Z,14.67
2023-03-30T19:23:13.602Z,14.61
2023-03-30T19:25:18.019Z,14.62
2023-03-30T19:27:21.264Z,14.74
2023-03-30T19:29:24.430Z,14.70
2023-03-30T19:31:27.828Z,14.79
2023-03-30T19:33:31.020Z,14.76
2023-03-30T19:35:34.633Z,14.61
2023-03-30T19:37:39.366Z,14.65
2023-03-30T19:39:42.982Z,14.77
2023-03-30T19:41:45.741Z,14.70
2023-03-30T19:43:50.584Z,14.56
2023-03-30T19:45:53.438Z,14.47
2023-03-30T19:47:56.538Z,14.46
2023-03-30T19:49:59.503Z,14.37
2023-03-30T19:52:01.798Z,14.34
2023-03-30T19:54:04.016Z,14.33
2023-03-30T19:56:11.228Z,14.41
2023-03-30T19:58:13.867Z,14.50
2023-03-30T20:00:17.553Z,14.53
2023-03-30T20:02:20.028Z,14.47
2023-03-30T20:04:22.876Z,14.55
2023-03-30T20:06:25.482Z,14.51
2023-03-30T20:08:28.016Z,14.49
2023-03-30T20:10:30.622Z,14.55
2023-03-30T20:12:32.781Z,14.46
2023-03-30T20:14:35.570Z,14.40
2023-03-30T20:16:37.629Z,14.34
2023-03-30T20:18:40.582Z,14.34
2023-03-30T20:20:42.586Z,14.42
2023-03-30T20:22:45.105Z,14.45
2023-03-30T20:24:47.187Z,14.41
2023-03-30T20:26:49.172Z,14.50
2023-03-30T20:28:51.257Z,14.49
2023-03-30T20:30:56.314Z,14.34
2023-03-30T20:33:07.525Z,14.29
2023-03-30T20:35:11.460Z,14.14
2023-03-30T20:37:13.542Z,14.15
2023-03-30T20:39:16.354Z,14.16
2023-03-30T20:41:21.957Z,14.38
2023-03-30T20:43:40.542Z,14.31
2023-03-30T20:45:49.241Z,14.21
2023-03-30T20:47:54.385Z,14.07
2023-03-30T20:49:57.297Z,14.15
2023-03-30T20:52:01.461Z,14.07
2023-03-30T20:54:05.224Z,14.04
2023-03-30T20:56:10.802Z,13.78
2023-03-30T20:58:13.621Z,13.58
2023-03-30T21:00:17.157Z,13.56
2023-03-30T21:02:20.360Z,13.70
2023-03-30T21:04:23.284Z,13.68
2023-03-30T21:06:29.971Z,13.60
2023-03-30T21:08:33.999Z,13.70
2023-03-30T21:10:37.060Z,13.74
2023-03-30T21:12:40.074Z,13.84
2023-03-30T21:14:42.899Z,13.63
2023-03-30T21:16:45.807Z,13.81
2023-03-30T21:18:51.199Z,13.81
2023-03-30T21:20:54.052Z,13.78
2023-03-30T21:22:57.150Z,13.87
2023-03-30T21:24:59.984Z,13.75
2023-03-30T21:27:04.234Z,13.77
2023-03-30T21:29:07.445Z,13.59
2023-03-30T21:31:12.484Z,13.56
2023-03-30T21:33:14.652Z,13.48
2023-03-30T21:35:16.698Z,13.37
2023-03-30T21:37:19.102Z,13.25
2023-03-30T21:39:21.161Z,13.20
2023-03-30T21:41:24.569Z,13.16
2023-03-30T21:43:28.332Z,13.07
2023-03-30T21:45:30.298Z,13.00
2023-03-30T21:47:32.278Z,13.05
2023-03-30T21:49:34.420Z,13.01
2023-03-30T21:51:36.790Z,12.94
2023-03-30T21:53:39.079Z,13.12
2023-03-30T21:55:40.986Z,13.21
2023-03-30T21:57:42.867Z,13.18
2023-03-30T21:59:44.823Z,13.10
2023-03-30T22:01:46.790Z,13.15
2023-03-30T22:03:48.947Z,13.04
2023-03-30T22:05:51.247Z,13.10
2023-03-30T22:07:53.378Z,13.08
2023-03-30T22:09:58.237Z,13.05
2023-03-30T22:12:00.422Z,13.06
2023-03-30T22:14:02.370Z,12.85
2023-03-30T22:16:11.017Z,13.04
2023-03-30T22:18:12.893Z,12.94
2023-03-30T22:20:15.148Z,12.73
2023-03-30T22:22:17.046Z,12.71
2023-03-30T22:24:20.439Z,12.95
2023-03-30T22:26:22.575Z,12.92
2023-03-30T22:28:26.064Z,12.80
2023-03-30T22:30:27.950Z,12.83
2023-03-30T22:32:32.876Z,12.85
2023-03-30T22:34:35.065Z,12.82
2023-03-30T22:36:36.936Z,12.69
2023-03-30T22:38:38.811Z,12.62
2023-03-30T22:40:43.540Z,12.68
2023-03-30T22:42:45.768Z,12.75
2023-03-30T22:44:47.766Z,12.68
2023-03-30T22:46:49.676Z,12.68
2023-03-30T22:48:55.993Z,12.71
2023-03-30T22:51:02.356Z,12.76
2023-03-30T22:53:06.717Z,12.84
2023-03-30T22:55:09.202Z,12.78
2023-03-30T22:57:11.346Z,12.71
2023-03-30T22:59:13.443Z,12.79
2023-03-30T23:01:16.019Z,12.56
2023-03-30T23:03:18.278Z,12.66
2023-03-30T23:05:22.090Z,12.70
2023-03-30T23:07:24.320Z,12.70
2023-03-30T23:09:28.799Z,12.80
2023-03-30T23:11:32.406Z,12.75
2023-03-30T23:13:37.628Z,12.81
2023-03-30T23:15:40.112Z,12.55
2023-03-30T23:17:43.187Z,12.63
2023-03-30T23:19:45.820Z,12.77
2023-03-30T23:21:48.012Z,12.63
2023-03-30T23:23:49.902Z,12.67
2023-03-30T23:25:52.268Z,12.63
2023-03-30T23:27:54.128Z,12.65
2023-03-30T23:29:55.948Z,12.58
2023-03-30T23:31:58.564Z,12.32
2023-03-30T23:34:00.627Z,12.28
2023-03-30T23:36:02.955Z,12.41
2023-03-30T23:38:05.747Z,12.46
2023-03-30T23:40:09.875Z,12.42
2023-03-30T23:42:11.803Z,12.56
2023-03-30T23:44:13.686Z,12.48
2023-03-30T23:46:16.359Z,12.45
2023-03-30T23:48:18.893Z,12.33
2023-03-30T23:50:20.819Z,12.35
2023-03-30T23:52:22.673Z,12.53
2023-03-30T23:54:24.872Z,12.45
2023-03-30T23:56:32.246Z,12.41
2023-03-30T23:58:34.245Z,12.42
